createdAt,value
2023-05-24T00:02:15.364Z,2.73
2023-05-24T00:05:03.769Z,2.70
2023-05-24T00:07:51.927Z,2.20
2023-05-24T00:10:40.048Z,2.55
2023-05-24T00:13:28.213Z,2.45
2023-05-24T00:16:16.540Z,2.40
2023-05-24T00:19:06.003Z,2.70
2023-05-24T00:21:54.249Z,2.70
2023-05-24T00:24:42.504Z,2.50
2023-05-24T00:27:30.578Z,2.65
2023-05-24T00:30:18.755Z,2.63
2023-05-24T00:33:07.237Z,2.85
2023-05-24T00:35:57.662Z,2.35
2023-05-24T00:38:45.856Z,2.75
2023-05-24T00:41:34.057Z,2.80
2023-05-24T00:44:22.194Z,2.93
2023-05-24T00:47:10.651Z,2.35
2023-05-24T00:49:59.010Z,2.50
2023-05-24T00:52:50.725Z,2.53
2023-05-24T00:55:39.151Z,2.35
2023-05-24T00:58:31.144Z,2.60
2023-05-24T01:01:19.203Z,2.40
2023-05-24T01:04:07.737Z,2.72
2023-05-24T01:07:10.969Z,3.20
2023-05-24T01:10:10.062Z,2.30
2023-05-24T01:13:05.696Z,2.63
2023-05-24T01:16:00.708Z,2.67
2023-05-24T01:18:53.933Z,2.97
2023-05-24T01:22:02.427Z,3.00
2023-05-24T01:25:04.615Z,2.90
2023-05-24T01:27:54.920Z,2.73
2023-05-24T01:30:44.020Z,2.80
2023-05-24T01:33:33.360Z,3.17
2023-05-24T01:36:21.881Z,2.63
2023-05-24T01:39:10.245Z,2.70
2023-05-24T01:42:08.600Z,3.00
2023-05-24T01:45:06.938Z,3.42
2023-05-24T01:48:11.349Z,2.65
2023-05-24T01:51:01.480Z,2.92
2023-05-24T01:53:51.622Z,2.97
2023-05-24T01:56:42.433Z,2.90
2023-05-24T01:59:33.125Z,3.08
2023-05-24T02:02:22.927Z,3.28
2023-05-24T02:05:12.153Z,2.90
2023-05-24T02:08:00.375Z,3.22
2023-05-24T02:10:48.573Z,3.10
2023-05-24T02:13:36.597Z,3.78
2023-05-24T02:16:26.744Z,2.67
2023-05-24T02:19:17.244Z,3.03
2023-05-24T02:22:06.328Z,3.03
2023-05-24T02:24:54.615Z,2.87
2023-05-24T02:27:47.014Z,3.25
2023-05-24T02:30:35.363Z,3.30
2023-05-24T02:33:25.467Z,3.28
2023-05-24T02:36:14.918Z,3.10
2023-05-24T02:39:04.029Z,3.00
2023-05-24T02:41:52.272Z,3.08
2023-05-24T02:44:42.610Z,3.10
2023-05-24T02:47:30.873Z,3.17
2023-05-24T02:50:19.142Z,3.00
2023-05-24T02:53:08.805Z,3.07
2023-05-24T02:55:56.912Z,3.40
2023-05-24T02:58:45.106Z,3.15
2023-05-24T03:01:35.583Z,3.00
2023-05-24T03:04:23.574Z,3.30
2023-05-24T03:07:11.775Z,3.00
2023-05-24T03:10:01.288Z,2.80
2023-05-24T03:12:49.504Z,3.30
2023-05-24T03:15:37.566Z,3.00
2023-05-24T03:18:26.703Z,3.38
2023-05-24T03:21:14.675Z,3.73
2023-05-24T03:24:02.872Z,3.05
2023-05-24T03:26:52.396Z,2.80
2023-05-24T03:29:40.491Z,2.90
2023-05-24T03:32:28.552Z,2.88
2023-05-24T03:35:16.594Z,3.10
2023-05-24T03:38:04.700Z,2.85
2023-05-24T03:40:52.851Z,3.15
2023-05-24T03:43:42.218Z,3.40
2023-05-24T03:46:30.358Z,3.00
2023-05-24T03:49:18.463Z,3.60
2023-05-24T03:52:06.610Z,3.40
2023-05-24T03:54:55.044Z,3.00
2023-05-24T03:57:43.766Z,3.38
2023-05-24T04:00:33.152Z,2.70
2023-05-24T04:03:21.337Z,3.27
2023-05-24T04:06:09.629Z,3.55
2023-05-24T04:08:58.152Z,3.50
2023-05-24T04:11:46.286Z,3.25
2023-05-24T04:14:35.246Z,3.88
2023-05-24T04:17:25.708Z,2.87
2023-05-24T04:20:15.106Z,3.28
2023-05-24T04:23:03.199Z,3.70
2023-05-24T04:25:51.235Z,3.35
2023-05-24T04:28:39.998Z,3.47
2023-05-24T04:31:29.528Z,3.13
2023-05-24T04:34:22.321Z,3.10
2023-05-24T04:37:10.792Z,3.33
2023-05-24T04:39:58.989Z,3.22
2023-05-24T04:42:47.038Z,3.20
2023-05-24T04:45:35.138Z,3.10
2023-05-24T04:48:24.517Z,2.92
2023-05-24T04:51:14.027Z,3.10
2023-05-24T04:54:08.615Z,3.33
2023-05-24T04:57:10.962Z,3.20
2023-05-24T04:59:58.953Z,3.57
2023-05-24T05:02:47.112Z,3.28
2023-05-24T05:05:35.657Z,3.50
2023-05-24T05:08:25.084Z,3.17
2023-05-24T05:11:13.106Z,3.47
2023-05-24T05:14:01.346Z,3.43
2023-05-24T05:16:49.556Z,3.88
2023-05-24T05:19:37.993Z,3.20
2023-05-24T05:22:26.283Z,3.22
2023-05-24T05:25:15.953Z,3.20
2023-05-24T05:28:03.960Z,3.13
2023-05-24T05:30:52.293Z,3.25
2023-05-24T05:33:40.341Z,3.60
2023-05-24T05:36:28.973Z,2.97
2023-05-24T05:39:17.002Z,3.28
2023-05-24T05:42:07.452Z,3.20
2023-05-24T05:44:56.006Z,2.60
2023-05-24T05:47:45.032Z,2.83
2023-05-24T05:50:33.203Z,2.63
2023-05-24T05:53:21.255Z,3.40
2023-05-24T05:56:09.258Z,2.70
2023-05-24T05:58:58.614Z,2.90
2023-05-24T06:01:48.928Z,3.13
2023-05-24T06:04:36.915Z,3.40
2023-05-24T06:07:24.936Z,2.65
2023-05-24T06:10:13.365Z,2.90
2023-05-24T06:13:02.846Z,3.03
2023-05-24T06:15:52.775Z,3.22
2023-05-24T06:18:47.342Z,2.75
2023-05-24T06:21:47.206Z,2.90
2023-05-24T06:24:35.359Z,2.73
2023-05-24T06:27:23.653Z,2.72
2023-05-24T06:30:13.021Z,2.40
2023-05-24T06:33:02.710Z,2.85
2023-05-24T06:35:50.952Z,3.20
2023-05-24T06:38:39.104Z,3.00
2023-05-24T06:41:28.133Z,3.28
2023-05-24T06:44:16.462Z,2.40
2023-05-24T06:47:05.823Z,2.38
2023-05-24T06:49:55.780Z,3.05
2023-05-24T06:52:44.169Z,3.07
2023-05-24T06:55:32.136Z,2.30
2023-05-24T06:58:20.165Z,2.22
2023-05-24T07:01:08.730Z,2.10
2023-05-24T07:03:57.210Z,2.15
2023-05-24T07:06:46.843Z,2.63
2023-05-24T07:09:34.888Z,2.15
2023-05-24T07:12:23.510Z,2.35
2023-05-24T07:15:11.700Z,2.70
2023-05-24T07:18:00.367Z,2.10
2023-05-24T07:20:48.592Z,2.10
2023-05-24T07:23:38.385Z,2.20
2023-05-24T07:26:26.520Z,2.33
2023-05-24T07:29:14.632Z,1.90
2023-05-24T07:32:02.702Z,2.40
2023-05-24T07:34:51.394Z,2.00
2023-05-24T07:37:39.452Z,2.35
2023-05-24T07:40:28.870Z,1.98
2023-05-24T07:43:16.937Z,2.10
2023-05-24T07:46:05.301Z,2.20
2023-05-24T07:48:53.480Z,2.17
2023-05-24T07:51:41.860Z,2.47
2023-05-24T07:54:29.945Z,1.85
2023-05-24T07:57:19.730Z,2.28
2023-05-24T08:00:12.654Z,2.10
2023-05-24T08:03:01.292Z,1.83
2023-05-24T08:05:49.436Z,2.13
2023-05-24T08:08:37.476Z,2.28
2023-05-24T08:11:25.881Z,2.05
2023-05-24T08:14:15.354Z,1.90
2023-05-24T08:17:03.696Z,2.07
2023-05-24T08:19:52.120Z,2.13
2023-05-24T08:22:40.182Z,1.95
2023-05-24T08:25:28.258Z,1.83
2023-05-24T08:28:16.976Z,2.10
2023-05-24T08:31:07.325Z,2.30
2023-05-24T08:33:57.601Z,2.00
2023-05-24T08:36:45.901Z,2.28
2023-05-24T08:39:34.012Z,2.00
2023-05-24T08:42:23.037Z,2.40
2023-05-24T08:45:13.371Z,2.20
2023-05-24T08:48:03.972Z,2.30
2023-05-24T08:50:53.272Z,2.05
2023-05-24T08:53:48.879Z,2.00
2023-05-24T08:56:39.075Z,2.20
2023-05-24T08:59:27.216Z,2.20
2023-05-24T09:02:16.404Z,2.38
2023-05-24T09:05:10.585Z,2.00
2023-05-24T09:08:02.040Z,2.15
2023-05-24T09:10:55.274Z,2.05
2023-05-24T09:13:46.241Z,1.97
2023-05-24T09:16:34.389Z,2.00
2023-05-24T09:19:23.074Z,2.05
2023-05-24T09:22:14.167Z,2.40
2023-05-24T09:25:02.538Z,2.25
2023-05-24T09:27:52.126Z,1.90
2023-05-24T09:30:40.658Z,1.70
2023-05-24T09:33:32.757Z,2.30
2023-05-24T09:36:20.902Z,1.77
2023-05-24T09:39:11.545Z,1.90
2023-05-24T09:41:59.608Z,2.07
2023-05-24T09:44:47.844Z,1.80
2023-05-24T09:47:38.547Z,1.75
2023-05-24T09:50:27.645Z,1.70
2023-05-24T09:53:19.196Z,1.77
2023-05-24T09:56:09.465Z,2.10
2023-05-24T09:58:57.977Z,1.98
2023-05-24T10:01:46.547Z,1.90
2023-05-24T10:04:34.978Z,1.42
2023-05-24T10:07:23.451Z,2.00
2023-05-24T10:10:12.240Z,1.97
2023-05-24T10:13:02.966Z,1.85
2023-05-24T10:15:51.304Z,1.80
2023-05-24T10:18:40.108Z,2.03
2023-05-24T10:21:32.870Z,1.52
2023-05-24T10:24:26.918Z,1.80
2023-05-24T10:27:18.974Z,1.58
2023-05-24T10:30:18.117Z,1.75
2023-05-24T10:33:08.512Z,2.20
2023-05-24T10:35:57.678Z,1.58
2023-05-24T10:38:47.870Z,1.50
2023-05-24T10:41:40.301Z,1.85
2023-05-24T10:44:31.948Z,1.90
2023-05-24T10:47:22.901Z,1.38
2023-05-24T10:50:19.112Z,1.85
2023-05-24T10:53:14.539Z,1.97
2023-05-24T10:56:04.979Z,1.95
2023-05-24T10:59:02.435Z,1.90
2023-05-24T11:01:56.390Z,1.33
2023-05-24T11:04:49.489Z,1.60
2023-05-24T11:07:42.926Z,1.60
2023-05-24T11:10:31.966Z,1.52
2023-05-24T11:13:20.918Z,1.92
2023-05-24T11:16:09.118Z,1.70
2023-05-24T11:18:57.440Z,1.90
2023-05-24T11:21:48.971Z,1.60
2023-05-24T11:24:38.231Z,1.80
2023-05-24T11:27:27.645Z,1.70
2023-05-24T11:30:16.761Z,1.90
2023-05-24T11:33:05.112Z,1.45
2023-05-24T11:35:54.505Z,1.70
2023-05-24T11:38:43.978Z,1.50
2023-05-24T11:41:32.090Z,1.58
2023-05-24T11:44:20.605Z,1.83
2023-05-24T11:47:09.447Z,1.92
2023-05-24T11:49:57.524Z,2.28
2023-05-24T11:52:45.543Z,1.60
2023-05-24T11:55:34.975Z,1.88
2023-05-24T11:58:24.801Z,2.05
2023-05-24T12:01:24.855Z,2.00
2023-05-24T12:04:13.044Z,2.10
2023-05-24T12:07:05.269Z,2.00
2023-05-24T12:09:53.500Z,1.70
2023-05-24T12:12:46.352Z,2.55
2023-05-24T12:15:34.860Z,1.98
2023-05-24T12:18:24.340Z,2.20
2023-05-24T12:21:13.011Z,2.03
2023-05-24T12:24:09.983Z,2.20
2023-05-24T12:27:01.938Z,2.00
2023-05-24T12:29:51.535Z,1.92
2023-05-24T12:32:40.574Z,2.03
2023-05-24T12:35:28.807Z,2.63
2023-05-24T12:38:25.171Z,2.17
2023-05-24T12:41:14.260Z,2.20
2023-05-24T12:44:02.378Z,2.03
2023-05-24T12:46:53.472Z,2.17
2023-05-24T12:49:41.638Z,2.00
2023-05-24T12:52:29.995Z,2.22
2023-05-24T12:55:17.985Z,2.10
2023-05-24T12:58:08.165Z,1.80
2023-05-24T13:00:56.380Z,1.95
2023-05-24T13:03:46.200Z,1.93
2023-05-24T13:06:34.226Z,2.22
2023-05-24T13:09:23.554Z,2.17
2023-05-24T13:12:12.544Z,1.95
2023-05-24T13:15:01.425Z,1.85
2023-05-24T13:17:49.596Z,2.00
2023-05-24T13:20:39.184Z,2.47
2023-05-24T13:23:27.994Z,2.20
2023-05-24T13:26:16.465Z,2.28
2023-05-24T13:31:56.790Z,2.53
2023-05-24T13:34:44.924Z,2.30
2023-05-24T13:37:34.335Z,2.40
2023-05-24T13:40:24.939Z,2.20
2023-05-24T13:43:13.172Z,2.40
2023-05-24T13:46:01.404Z,2.17
2023-05-24T13:48:49.719Z,1.95
2023-05-24T13:51:38.137Z,2.10
2023-05-24T13:54:28.101Z,2.00
2023-05-24T13:57:17.236Z,2.38
2023-05-24T14:00:06.684Z,2.63
2023-05-24T14:02:55.807Z,2.28
2023-05-24T14:05:44.983Z,2.03
2023-05-24T14:08:33.368Z,2.30
2023-05-24T14:11:24.701Z,2.55
2023-05-24T14:17:03.785Z,2.38
2023-05-24T14:19:52.144Z,2.20
2023-05-24T14:22:40.259Z,2.55
2023-05-24T14:25:28.449Z,2.30
2023-05-24T14:28:17.973Z,1.93
2023-05-24T14:31:06.114Z,2.33
2023-05-24T14:33:54.344Z,2.20
2023-05-24T14:36:42.463Z,2.30
2023-05-24T14:39:30.657Z,2.55
2023-05-24T14:42:18.683Z,2.07
2023-05-24T14:45:09.733Z,1.95
2023-05-24T14:47:57.992Z,2.60
2023-05-24T14:50:46.102Z,1.92
2023-05-24T14:53:34.141Z,2.22
2023-05-24T14:56:22.969Z,2.37
2023-05-24T14:59:11.063Z,1.98
2023-05-24T15:02:00.499Z,2.50
2023-05-24T15:04:49.034Z,2.22
2023-05-24T15:07:37.110Z,2.30
2023-05-24T15:10:25.283Z,2.43
2023-05-24T15:13:13.695Z,2.40
2023-05-24T15:16:01.778Z,2.30
2023-05-24T15:18:51.234Z,1.83
2023-05-24T15:21:39.168Z,2.17
2023-05-24T15:24:27.408Z,1.90
2023-05-24T15:27:15.769Z,2.17
2023-05-24T15:30:04.622Z,2.75
2023-05-24T15:32:52.995Z,2.30
2023-05-24T15:35:42.455Z,2.45
2023-05-24T15:38:30.528Z,2.50
2023-05-24T15:41:18.679Z,2.03
2023-05-24T15:44:08.854Z,2.10
2023-05-24T15:46:56.978Z,2.63
2023-05-24T15:49:45.418Z,2.05
2023-05-24T15:52:35.062Z,2.70
2023-05-24T15:55:23.190Z,2.17
2023-05-24T15:58:13.384Z,2.20
2023-05-24T16:01:01.600Z,2.17
2023-05-24T16:03:49.789Z,2.30
2023-05-24T16:06:38.115Z,2.70
2023-05-24T16:09:27.521Z,2.10
2023-05-24T16:12:15.902Z,2.15
2023-05-24T16:15:04.285Z,2.13
2023-05-24T16:17:52.466Z,2.78
2023-05-24T16:20:41.064Z,2.40
2023-05-24T16:23:29.227Z,2.35
2023-05-24T16:26:18.769Z,2.28
2023-05-24T16:29:07.389Z,2.42
2023-05-24T16:31:55.480Z,2.30
2023-05-24T16:34:56.291Z,2.70
2023-05-24T16:37:45.244Z,2.78
2023-05-24T16:40:33.304Z,2.92
2023-05-24T16:43:22.845Z,2.85
2023-05-24T16:46:11.004Z,2.80
2023-05-24T16:48:59.262Z,2.20
2023-05-24T16:51:47.308Z,2.10
2023-05-24T16:54:35.720Z,2.72
2023-05-24T16:57:23.820Z,2.20
2023-05-24T17:00:15.306Z,2.33
2023-05-24T17:03:04.063Z,2.50
2023-05-24T17:05:53.263Z,2.80
2023-05-24T17:08:41.377Z,2.40
2023-05-24T17:11:29.606Z,3.08
2023-05-24T17:14:17.739Z,2.08
2023-05-24T17:17:08.918Z,2.10
2023-05-24T17:19:58.114Z,2.40
2023-05-24T17:22:46.523Z,2.40
2023-05-24T17:25:34.717Z,2.38
2023-05-24T17:28:27.192Z,2.10
2023-05-24T17:31:16.322Z,2.40
2023-05-24T17:34:05.933Z,2.42
2023-05-24T17:36:53.920Z,2.40
2023-05-24T17:39:42.367Z,2.30
2023-05-24T17:42:30.390Z,3.10
2023-05-24T17:45:18.635Z,2.30
2023-05-24T17:48:07.117Z,2.55
2023-05-24T17:50:56.884Z,2.30
2023-05-24T17:53:45.003Z,2.72
2023-05-24T17:56:33.035Z,2.60
2023-05-24T17:59:21.266Z,2.67
2023-05-24T18:02:09.249Z,2.70
2023-05-24T18:04:57.472Z,2.72
2023-05-24T18:07:46.957Z,2.83
2023-05-24T18:10:35.192Z,2.70
2023-05-24T18:13:23.871Z,2.57
2023-05-24T18:16:12.800Z,2.60
2023-05-24T18:19:00.799Z,2.63
2023-05-24T18:21:49.811Z,1.98
2023-05-24T18:24:39.269Z,2.22
2023-05-24T18:27:27.727Z,2.70
2023-05-24T18:30:16.352Z,2.45
2023-05-24T18:33:08.209Z,2.60
2023-05-24T18:35:56.947Z,2.70
2023-05-24T18:38:47.302Z,2.80
2023-05-24T18:41:36.681Z,2.70
2023-05-24T18:44:24.710Z,2.60
2023-05-24T18:47:13.021Z,2.50
2023-05-24T18:50:01.129Z,2.67
2023-05-24T18:52:49.459Z,2.60
2023-05-24T18:55:37.517Z,3.03
2023-05-24T18:58:26.880Z,2.50
2023-05-24T19:01:15.133Z,2.40
2023-05-24T19:04:03.404Z,2.10
2023-05-24T19:06:51.637Z,2.47
2023-05-24T19:09:39.730Z,2.37
2023-05-24T19:12:27.805Z,2.50
2023-05-24T19:15:17.582Z,2.85
2023-05-24T19:18:06.279Z,2.67
2023-05-24T19:20:54.456Z,2.65
2023-05-24T19:23:42.862Z,2.67
2023-05-24T19:26:30.873Z,2.30
2023-05-24T19:29:19.140Z,2.25
2023-05-24T19:32:09.042Z,2.47
2023-05-24T19:34:57.227Z,2.47
2023-05-24T19:37:45.237Z,2.50
2023-05-24T19:40:33.270Z,2.15
2023-05-24T19:43:21.592Z,2.25
2023-05-24T19:46:10.948Z,2.22
2023-05-24T19:49:00.478Z,2.40
2023-05-24T19:51:48.649Z,2.30
2023-05-24T19:54:36.662Z,2.67
2023-05-24T19:57:25.361Z,2.60
2023-05-24T20:00:14.213Z,2.47
2023-05-24T20:03:02.371Z,2.50
2023-05-24T20:05:51.878Z,2.50
2023-05-24T20:08:39.895Z,2.55
2023-05-24T20:11:28.030Z,2.30
2023-05-24T20:14:16.089Z,2.20
2023-05-24T20:17:04.253Z,2.30
2023-05-24T20:19:52.701Z,2.33
2023-05-24T20:22:42.118Z,2.53
2023-05-24T20:25:30.152Z,2.50
2023-05-24T20:28:29.645Z,2.75
2023-05-24T20:31:19.510Z,2.50
2023-05-24T20:34:07.663Z,2.70
2023-05-24T20:36:55.619Z,2.55
2023-05-24T20:39:45.018Z,2.22
2023-05-24T20:42:33.063Z,2.65
2023-05-24T20:45:21.424Z,2.45
2023-05-24T20:48:09.510Z,2.70
2023-05-24T20:50:58.074Z,2.58
2023-05-24T20:53:46.865Z,2.85
2023-05-24T20:56:36.398Z,2.58
2023-05-24T20:59:24.464Z,2.60
2023-05-24T21:02:12.548Z,2.60
2023-05-24T21:05:00.933Z,2.67
2023-05-24T21:07:48.938Z,2.83
2023-05-24T21:10:38.005Z,2.75
2023-05-24T21:13:28.214Z,2.53
2023-05-24T21:16:16.259Z,2.83
2023-05-24T21:19:04.233Z,2.30
2023-05-24T21:21:52.301Z,2.88
2023-05-24T21:24:40.332Z,2.58
2023-05-24T21:27:28.383Z,2.53
2023-05-24T21:30:17.872Z,2.80
2023-05-24T21:33:05.887Z,2.60
2023-05-24T21:35:54.117Z,2.30
2023-05-24T21:38:42.155Z,2.67
2023-05-24T21:41:30.199Z,2.75
2023-05-24T21:44:18.344Z,2.47
2023-05-24T21:47:07.878Z,2.83
2023-05-24T21:49:55.906Z,2.60
2023-05-24T21:52:43.931Z,3.47
2023-05-24T21:55:32.133Z,2.72
2023-05-24T21:58:20.198Z,2.83
2023-05-24T22:01:08.557Z,2.60
2023-05-24T22:03:58.056Z,2.50
2023-05-24T22:06:46.421Z,2.67
2023-05-24T22:09:34.914Z,2.58
2023-05-24T22:12:23.005Z,2.77
2023-05-24T22:15:12.078Z,2.83
2023-05-24T22:18:02.261Z,2.83
2023-05-24T22:20:51.730Z,3.00
2023-05-24T22:23:39.829Z,3.15
2023-05-24T22:26:28.064Z,3.57
2023-05-24T22:29:16.618Z,3.22
2023-05-24T22:32:04.933Z,2.75
2023-05-24T22:34:52.932Z,2.85
2023-05-24T22:37:42.699Z,2.90
2023-05-24T22:40:30.766Z,3.20
2023-05-24T22:43:18.828Z,2.60
2023-05-24T22:46:09.898Z,2.58
2023-05-24T22:49:02.930Z,2.45
2023-05-24T22:51:53.117Z,2.67
2023-05-24T22:54:42.558Z,2.80
2023-05-24T22:57:30.811Z,3.03
2023-05-24T23:00:20.580Z,2.63
2023-05-24T23:03:09.700Z,2.65
2023-05-24T23:06:03.767Z,3.30
2023-05-24T23:08:51.917Z,3.07
2023-05-24T23:11:42.908Z,3.20
2023-05-24T23:14:31.435Z,3.08
2023-05-24T23:17:20.589Z,3.25
2023-05-24T23:20:10.705Z,3.10
2023-05-24T23:23:02.809Z,3.40
2023-05-24T23:25:51.722Z,3.20
2023-05-24T23:28:41.324Z,2.92
2023-05-24T23:31:29.365Z,3.38
2023-05-24T23:34:17.448Z,3.20
2023-05-24T23:37:06.243Z,3.33
2023-05-24T23:39:54.320Z,2.80
2023-05-24T23:42:42.297Z,3.20
2023-05-24T23:45:32.627Z,3.10
2023-05-24T23:48:21.231Z,3.30
2023-05-24T23:51:10.161Z,3.70
2023-05-24T23:53:58.194Z,3.53
2023-05-24T23:56:46.266Z,3.58
2023-05-24T23:59:34.414Z,3.50
